Time;durP1;ratioP1;P1;durP2;ratioP2;P2;SDS_P1;SDS_P2;PMS_P1;PMS_P2;Temp;Humidity;BMP_temperature;BMP_pressure;BME280_temperature;BME280_humidity;BME280_pressure;Samples;Min_cycle;Max_cycle;Signal;HPM_P1;HPM_P2
2021/07/25 00:00:14;;;;;;;26.70;23.87;;;;;;;16.21;92.94;100178.63;690972;28;1509;-80
2021/07/25 00:00:35;;;;;;;28.25;24.25;;;;;;;16.16;93.34;100177.00;689277;28;2236;-81
2021/07/25 00:00:55;;;;;;;28.60;25.30;;;;;;;16.14;93.80;100189.41;691318;28;1186;-80
2021/07/25 00:01:16;;;;;;;30.57;26.37;;;;;;;16.12;93.37;100182.47;694074;28;1176;-81
2021/07/25 00:01:36;;;;;;;29.23;25.08;;;;;;;16.14;92.86;100181.50;697196;28;1240;-81
2021/07/25 00:01:57;;;;;;;27.53;24.53;;;;;;;16.16;93.08;100189.34;690730;28;4359;-81
2021/07/25 00:02:17;;;;;;;27.70;24.75;;;;;;;16.14;93.74;100180.63;691576;28;4320;-80
2021/07/25 00:02:37;;;;;;;30.10;25.67;;;;;;;16.10;94.06;100177.25;688906;28;4011;-80
2021/07/25 00:02:58;;;;;;;28.85;25.83;;;;;;;16.08;94.26;100179.06;685895;28;1876;-80
2021/07/25 00:03:18;;;;;;;29.50;26.40;;;;;;;16.05;94.39;100180.94;686764;28;1634;-81
2021/07/25 00:03:38;;;;;;;29.43;26.23;;;;;;;16.05;94.58;100181.81;686819;28;1461;-81
2021/07/25 00:03:59;;;;;;;28.63;25.52;;;;;;;16.05;94.63;100181.81;688346;28;1438;-81
2021/07/25 00:04:19;;;;;;;28.40;25.40;;;;;;;16.06;94.25;100180.03;691118;28;1129;-81
2021/07/25 00:04:40;;;;;;;29.08;25.95;;;;;;;16.06;94.15;100180.03;689756;28;1474;-81
2021/07/25 00:05:05;;;;;;;28.77;25.00;;;;;;;16.05;94.52;100178.28;687634;28;4403;-80
2021/07/25 00:05:25;;;;;;;28.17;25.17;;;;;;;16.05;94.25;100176.53;693065;28;5061;-81
2021/07/25 00:05:46;;;;;;;28.63;25.43;;;;;;;16.05;94.41;100176.53;688447;28;4530;-81
2021/07/25 00:06:06;;;;;;;29.60;25.67;;;;;;;16.03;94.78;100178.34;691914;28;1493;-81
2021/07/25 00:06:29;;;;;;;29.20;25.80;;;;;;;16.03;94.87;100183.63;691888;28;1464;-80
2021/07/25 00:06:50;;;;;;;29.85;26.20;;;;;;;16.04;94.92;100179.22;691137;28;1172;-80
2021/07/25 00:07:10;;;;;;;30.37;27.07;;;;;;;16.03;95.00;100172.22;691610;28;1703;-80
2021/07/25 00:07:30;;;;;;;30.85;27.20;;;;;;;16.03;94.99;100182.78;688130;28;1452;-80
2021/07/25 00:07:51;;;;;;;30.63;26.37;;;;;;;16.04;94.24;100179.22;691060;28;4429;-80
2021/07/25 00:08:14;;;;;;;29.70;24.90;;;;;;;16.07;94.20;100179.13;694778;28;4326;-80
2021/07/25 00:08:34;;;;;;;24.92;22.38;;;;;;;16.11;93.74;100180.72;694356;28;3932;-81
2021/07/25 00:08:55;;;;;;;24.03;21.57;;;;;;;16.15;93.13;100177.06;691412;28;4220;-80
2021/07/25 00:09:15;;;;;;;26.95;23.85;;;;;;;16.17;93.75;100175.22;688406;28;1607;-81
2021/07/25 00:09:36;;;;;;;29.50;25.37;;;;;;;16.17;94.28;100177.88;687335;28;1471;-81
2021/07/25 00:09:56;;;;;;;30.15;25.77;;;;;;;16.15;94.24;100180.56;685990;28;1499;-80
2021/07/25 00:10:16;;;;;;;29.43;25.77;;;;;;;16.16;94.17;100176.16;686464;28;1276;-80
2021/07/25 00:10:42;;;;;;;29.98;26.63;;;;;;;16.15;94.51;100177.06;687760;28;1247;-81
2021/07/25 00:11:02;;;;;;;30.20;26.90;;;;;;;16.15;94.94;100184.97;688488;28;5399;-80
2021/07/25 00:11:23;;;;;;;29.05;25.95;;;;;;;16.12;94.85;100182.47;685069;28;4337;-81
2021/07/25 00:11:43;;;;;;;29.10;25.97;;;;;;;16.12;94.91;100182.47;689188;28;3681;-81
2021/07/25 00:12:04;;;;;;;31.30;27.08;;;;;;;16.11;94.92;100180.72;689269;28;2916;-81
2021/07/25 00:12:24;;;;;;;30.07;26.40;;;;;;;16.09;95.11;100178.16;688563;28;4202;-81
2021/07/25 00:12:44;;;;;;;30.42;26.35;;;;;;;16.07;95.19;100179.13;685231;28;1795;-81
2021/07/25 00:13:05;;;;;;;30.00;26.37;;;;;;;16.04;95.27;100185.34;688287;28;1245;-81
2021/07/25 00:13:25;;;;;;;30.50;27.20;;;;;;;16.03;95.31;100178.34;685780;28;1637;-81
2021/07/25 00:13:51;;;;;;;31.75;27.30;;;;;;;16.01;95.32;100177.56;688808;28;1599;-81
2021/07/25 00:14:11;;;;;;;30.88;26.90;;;;;;;16.00;95.27;100171.44;685036;28;5230;-80
2021/07/25 00:14:32;;;;;;;31.40;26.87;;;;;;;16.02;95.46;100175.78;688721;28;1578;-80
2021/07/25 00:14:52;;;;;;;31.88;27.80;;;;;;;16.02;95.55;100170.50;687944;28;3936;-80
2021/07/25 00:15:13;;;;;;;30.40;27.10;;;;;;;16.01;95.66;100177.56;688422;28;2553;-81
2021/07/25 00:15:34;;;;;;;31.00;27.08;;;;;;;16.02;95.41;100168.75;690379;28;4522;-80
2021/07/25 00:15:54;;;;;;;30.90;27.43;;;;;;;16.03;95.24;100177.50;685678;28;1830;-81
2021/07/25 00:16:14;;;;;;;32.47;27.70;;;;;;;16.03;95.59;100173.09;686137;28;1556;-80
2021/07/25 00:16:35;;;;;;;32.57;27.57;;;;;;;16.03;95.54;100177.50;689065;28;1163;-80
2021/07/25 00:16:55;;;;;;;32.75;27.95;;;;;;;16.04;95.97;100181.88;682694;28;5407;-81
2021/07/25 00:17:16;;;;;;;32.30;27.47;;;;;;;16.03;95.49;100175.72;685538;28;4379;-81
2021/07/25 00:17:36;;;;;;;31.52;27.15;;;;;;;16.03;95.20;100175.72;684951;28;1345;-81
2021/07/25 00:17:56;;;;;;;31.03;26.10;;;;;;;16.06;94.74;100180.03;688482;28;1583;-80
2021/07/25 00:18:17;;;;;;;28.27;24.93;;;;;;;16.06;94.60;100180.91;687810;28;4249;-80
2021/07/25 00:18:37;;;;;;;28.70;25.58;;;;;;;16.07;94.83;100179.97;688230;28;4045;-80
2021/07/25 00:18:58;;;;;;;30.90;26.30;;;;;;;16.06;95.30;100177.38;691040;28;1977;-80
2021/07/25 00:19:18;;;;;;;31.20;26.17;;;;;;;16.05;95.51;100175.66;687410;28;1619;-80
2021/07/25 00:19:39;;;;;;;31.00;26.67;;;;;;;16.05;95.63;100180.94;691452;28;1426;-81
2021/07/25 00:19:59;;;;;;;32.08;27.27;;;;;;;16.05;95.40;100181.81;687700;28;4334;-80
2021/07/25 00:20:20;;;;;;;31.27;26.52;;;;;;;16.06;94.65;100180.03;689240;28;4324;-80
2021/07/25 00:20:40;;;;;;;27.40;24.30;;;;;;;16.05;94.94;100183.56;690550;28;1369;-81
2021/07/25 00:21:01;;;;;;;28.38;25.30;;;;;;;16.04;94.85;100177.44;691280;28;1348;-81
2021/07/25 00:21:21;;;;;;;29.53;26.30;;;;;;;16.02;95.12;100181.94;690400;28;2545;-80
2021/07/25 00:21:41;;;;;;;32.03;26.80;;;;;;;16.02;95.43;100184.56;688118;28;4452;-80
2021/07/25 00:22:03;;;;;;;30.87;26.40;;;;;;;16.00;95.65;100174.06;685590;28;4300;-80
2021/07/25 00:22:24;;;;;;;31.10;26.88;;;;;;;16.00;95.45;100179.34;688569;28;1769;-80
2021/07/25 00:22:47;;;;;;;31.40;26.90;;;;;;;15.99;94.97;100172.34;691331;28;1298;-81
2021/07/25 00:23:07;;;;;;;28.52;25.45;;;;;;;16.03;94.57;100173.09;687657;28;4411;-81
2021/07/25 00:23:28;;;;;;;27.95;24.80;;;;;;;16.04;94.51;100174.81;685952;28;1865;-81
2021/07/25 00:23:50;;;;;;;28.08;24.95;;;;;;;16.04;94.81;100184.50;688930;28;1445;-81
2021/07/25 00:24:13;;;;;;;30.05;26.05;;;;;;;16.03;95.29;100180.13;691496;28;1501;-80
2021/07/25 00:24:38;;;;;;;30.42;27.10;;;;;;;16.03;95.38;100180.13;691374;28;1901;-80
2021/07/25 00:25:28;;;;;;;31.92;27.73;;;;;;;16.03;95.46;100186.25;694373;28;3435;-81
2021/07/25 00:25:50;;;;;;;30.45;27.02;;;;;;;16.03;95.41;100180.13;692982;28;2508;-81
2021/07/25 00:26:14;;;;;;;30.27;26.70;;;;;;;16.02;95.36;100176.66;690246;28;5972;-80
2021/07/25 00:26:44;;;;;;;31.88;26.33;;;;;;;16.03;95.05;100178.34;694261;28;1366;-81
2021/07/25 00:27:06;;;;;;;28.90;25.65;;;;;;;16.04;95.16;100174.81;695744;28;1456;-80
2021/07/25 00:27:29;;;;;;;30.25;26.52;;;;;;;16.05;95.39;100180.94;694360;28;1230;-81
2021/07/25 00:27:55;;;;;;;29.80;26.52;;;;;;;16.04;95.31;100179.22;690141;28;3905;-80
2021/07/25 00:28:18;;;;;;;30.02;26.83;;;;;;;16.03;94.75;100183.63;688628;28;1613;-80
2021/07/25 00:28:39;;;;;;;29.63;26.45;;;;;;;16.04;94.59;100185.34;690098;28;4037;-80
2021/07/25 00:28:59;;;;;;;29.67;25.40;;;;;;;16.07;94.39;100179.13;689853;28;4349;-81
2021/07/25 00:29:20;;;;;;;30.17;24.33;;;;;;;16.07;94.74;100184.38;691809;28;4420;-80
2021/07/25 00:29:40;;;;;;;29.00;24.83;;;;;;;16.06;94.98;100180.91;695968;28;1563;-81
2021/07/25 00:30:00;;;;;;;29.05;25.40;;;;;;;16.05;95.31;100183.56;694763;28;1334;-80
2021/07/25 00:30:25;;;;;;;29.23;24.87;;;;;;;16.06;94.14;100182.66;695487;28;1518;-81
2021/07/25 00:30:46;;;;;;;26.00;22.67;;;;;;;16.10;94.16;100179.00;696065;28;1530;-81
2021/07/25 00:31:08;;;;;;;27.43;24.23;;;;;;;16.07;94.67;100174.69;695062;28;2657;-80
2021/07/25 00:31:29;;;;;;;29.38;25.45;;;;;;;16.07;94.94;100187.03;691734;28;4125;-80
2021/07/25 00:31:49;;;;;;;29.70;25.45;;;;;;;16.07;94.67;100179.13;685939;28;4633;-81
2021/07/25 00:32:10;;;;;;;28.90;25.03;;;;;;;16.08;94.50;100175.56;690556;28;4329;-80
2021/07/25 00:32:30;;;;;;;29.50;25.52;;;;;;;16.06;95.13;100180.03;689190;28;1427;-80
2021/07/25 00:32:51;;;;;;;30.00;26.23;;;;;;;16.04;95.21;100173.97;689340;28;1576;-81
2021/07/25 00:33:12;;;;;;;31.00;26.63;;;;;;;16.03;95.41;100177.50;690573;28;1263;-80
2021/07/25 00:33:33;;;;;;;32.13;26.75;;;;;;;16.03;95.34;100170.44;688765;28;1591;-82
2021/07/25 00:33:53;;;;;;;32.47;26.52;;;;;;;16.03;95.46;100172.22;683284;28;1276;-81
2021/07/25 00:34:13;;;;;;;31.20;26.37;;;;;;;16.05;94.63;100178.28;684145;28;1361;-80
2021/07/25 00:34:34;;;;;;;27.67;24.47;;;;;;;16.07;93.98;100173.84;688147;28;4028;-80
2021/07/25 00:34:56;;;;;;;24.27;21.70;;;;;;;16.12;94.19;100178.03;685250;28;4419;-80
2021/07/25 00:35:19;;;;;;;25.88;23.10;;;;;;;16.12;94.30;100172.75;688206;28;4377;-80
2021/07/25 00:35:39;;;;;;;27.92;23.83;;;;;;;16.14;93.76;100175.34;689416;28;1788;-80
2021/07/25 00:36:02;;;;;;;23.73;21.23;;;;;;;16.18;93.21;100171.69;688051;28;1368;-80
2021/07/25 00:36:23;;;;;;;23.90;20.98;;;;;;;16.22;92.90;100170.66;697029;28;1705;-80
2021/07/25 00:36:43;;;;;;;25.00;22.30;;;;;;;16.24;93.43;100170.59;694479;28;1211;-81
2021/07/25 00:37:03;;;;;;;26.67;23.77;;;;;;;16.22;93.87;100169.81;687526;28;1531;-80
2021/07/25 00:37:24;;;;;;;28.52;24.83;;;;;;;16.19;94.43;100173.41;687959;28;1819;-81
2021/07/25 00:37:48;;;;;;;29.27;25.67;;;;;;;16.14;94.87;100170.94;690723;28;4337;-80
2021/07/25 00:38:08;;;;;;;30.20;26.35;;;;;;;16.14;95.15;100172.72;690016;28;4782;-81
2021/07/25 00:38:28;;;;;;;29.77;26.02;;;;;;;16.13;94.99;100170.97;694115;28;5145;-80
2021/07/25 00:38:49;;;;;;;29.47;26.27;;;;;;;16.14;94.73;100180.63;697452;28;1457;-80
2021/07/25 00:39:10;;;;;;;29.17;25.97;;;;;;;16.13;94.53;100168.34;690768;28;1918;-81
2021/07/25 00:39:31;;;;;;;27.77;24.88;;;;;;;16.14;94.27;100170.06;691736;28;978;-81
2021/07/25 00:39:51;;;;;;;27.50;24.43;;;;;;;16.16;93.60;100165.63;690566;28;1411;-80
2021/07/25 00:40:21;;;;;;;26.63;23.83;;;;;;;16.18;93.83;100174.31;691615;28;1595;-81
2021/07/25 00:40:43;;;;;;;28.48;25.30;;;;;;;16.19;94.72;100169.94;690115;28;1475;-80
2021/07/25 00:41:12;;;;;;;29.92;25.45;;;;;;;16.19;94.91;100175.19;690932;28;4373;-80
2021/07/25 00:41:33;;;;;;;31.02;25.63;;;;;;;16.17;94.56;100169.94;693617;28;4821;-81
2021/07/25 00:41:53;;;;;;;30.38;25.88;;;;;;;16.17;94.40;100168.19;688459;28;1737;-80
2021/07/25 00:42:14;;;;;;;28.30;24.53;;;;;;;16.18;93.90;100161.13;688021;28;1998;-80
2021/07/25 00:42:38;;;;;;;26.30;23.45;;;;;;;16.19;93.72;100165.50;690721;28;1858;-80
2021/07/25 00:42:58;;;;;;;27.88;24.88;;;;;;;16.20;94.79;100163.72;691259;28;1536;-80
2021/07/25 00:43:27;;;;;;;30.38;26.17;;;;;;;16.19;94.45;100162.88;691186;28;1685;-80
2021/07/25 00:43:48;;;;;;;27.75;24.48;;;;;;;16.20;94.02;100169.88;692497;28;1691;-80
2021/07/25 00:44:09;;;;;;;29.50;25.45;;;;;;;16.20;93.97;100169.88;693829;28;5097;-81
2021/07/25 00:44:30;;;;;;;28.80;25.10;;;;;;;16.22;93.83;100173.28;690404;28;2757;-81
2021/07/25 00:44:51;;;;;;;26.25;23.23;;;;;;;16.23;93.70;100169.75;685468;28;1534;-81
2021/07/25 00:45:11;;;;;;;25.70;22.97;;;;;;;16.25;93.43;100170.53;688687;28;1636;-81
2021/07/25 00:45:32;;;;;;;26.73;23.67;;;;;;;16.25;93.38;100170.53;688126;28;1543;-81
2021/07/25 00:45:53;;;;;;;27.00;24.13;;;;;;;16.27;93.79;100171.34;691172;28;1296;-80
2021/07/25 00:46:18;;;;;;;27.25;24.35;;;;;;;16.26;93.93;100169.63;693166;28;1833;-80
2021/07/25 00:46:38;;;;;;;26.80;23.75;;;;;;;16.25;93.55;100162.63;692169;28;1606;-81
2021/07/25 00:47:01;;;;;;;26.13;23.38;;;;;;;16.27;93.42;100176.63;691459;28;4305;-81
2021/07/25 00:47:21;;;;;;;25.23;22.35;;;;;;;16.28;93.22;100173.09;691881;28;4522;-80
2021/07/25 00:47:44;;;;;;;27.13;23.35;;;;;;;16.26;94.32;100176.69;691192;28;3951;-80
2021/07/25 00:48:05;;;;;;;30.95;25.08;;;;;;;16.23;94.55;100177.66;688231;28;3961;-80
2021/07/25 00:48:26;;;;;;;29.25;24.98;;;;;;;16.23;94.51;100175.03;691481;28;2090;-80
2021/07/25 00:48:47;;;;;;;29.57;25.17;;;;;;;16.21;94.69;100173.34;693340;28;1568;-80
2021/07/25 00:49:07;;;;;;;28.75;24.88;;;;;;;16.19;94.39;100183.97;686076;28;1494;-81
2021/07/25 00:49:28;;;;;;;27.38;24.48;;;;;;;16.21;94.45;100183.91;691505;28;1807;-81
2021/07/25 00:49:49;;;;;;;28.23;24.80;;;;;;;16.22;94.18;100180.34;689919;28;4345;-80
2021/07/25 00:50:10;;;;;;;27.02;23.45;;;;;;;16.23;94.12;100185.56;684863;28;4352;-80
2021/07/25 00:50:31;;;;;;;24.90;22.30;;;;;;;16.24;93.74;100179.38;688484;28;2458;-81
2021/07/25 00:50:55;;;;;;;26.15;22.70;;;;;;;16.25;94.25;100172.31;687901;28;4317;-81
2021/07/25 00:51:16;;;;;;;28.70;24.88;;;;;;;16.22;94.49;100173.28;688015;28;4736;-81
2021/07/25 00:51:36;;;;;;;28.05;24.15;;;;;;;16.22;93.87;100173.28;685994;28;1713;-80
2021/07/25 00:51:57;;;;;;;26.40;23.20;;;;;;;16.22;93.91;100175.94;686432;28;1428;-80
2021/07/25 00:52:17;;;;;;;27.33;24.30;;;;;;;16.23;94.67;100179.44;689023;28;1577;-80
2021/07/25 00:52:38;;;;;;;30.43;25.57;;;;;;;16.22;94.91;100183.00;689182;28;1787;-80
2021/07/25 00:52:59;;;;;;;29.42;25.40;;;;;;;16.20;94.62;100182.16;688654;28;4440;-81
2021/07/25 00:53:21;;;;;;;28.67;24.73;;;;;;;16.21;94.92;100182.13;685009;28;4392;-80
2021/07/25 00:53:43;;;;;;;30.58;25.63;;;;;;;16.20;95.17;100176.91;684702;28;3080;-80
2021/07/25 00:54:04;;;;;;;31.50;25.30;;;;;;;16.19;94.70;100172.56;687354;28;3528;-80
2021/07/25 00:54:24;;;;;;;25.20;22.50;;;;;;;16.21;93.92;100182.13;687969;28;2815;-80
2021/07/25 00:54:45;;;;;;;25.90;23.08;;;;;;;16.23;94.49;100174.19;685043;28;1911;-81
2021/07/25 00:55:06;;;;;;;30.47;24.50;;;;;;;16.23;94.75;100182.09;691061;28;1576;-80
2021/07/25 00:55:27;;;;;;;30.45;25.20;;;;;;;16.20;95.12;100175.13;693093;28;1634;-81
2021/07/25 00:55:47;;;;;;;29.95;25.67;;;;;;;16.20;95.39;100180.41;691022;28;1543;-81
2021/07/25 00:56:09;;;;;;;30.10;25.77;;;;;;;16.20;95.51;100179.53;687720;28;4314;-80
2021/07/25 00:56:32;;;;;;;32.42;26.67;;;;;;;16.21;95.78;100178.63;688222;28;1359;-81
2021/07/25 00:56:52;;;;;;;29.83;25.98;;;;;;;16.20;95.61;100175.13;685839;28;1519;-81
2021/07/25 00:57:12;;;;;;;31.60;26.48;;;;;;;16.18;95.67;100171.69;688658;28;1664;-81
2021/07/25 00:57:33;;;;;;;32.60;26.73;;;;;;;16.18;95.67;100182.22;690799;28;4525;-81
2021/07/25 00:57:53;;;;;;;32.23;26.33;;;;;;;16.17;95.40;100170.84;688621;28;1719;-80
2021/07/25 00:58:15;;;;;;;29.80;25.87;;;;;;;16.16;95.67;100169.09;688127;28;1957;-81
2021/07/25 00:58:37;;;;;;;30.80;26.30;;;;;;;16.17;95.21;100180.50;686015;28;1364;-81
2021/07/25 00:58:58;;;;;;;29.95;25.58;;;;;;;16.19;94.71;100177.84;689495;28;4529;-81
2021/07/25 00:59:18;;;;;;;29.75;24.70;;;;;;;16.21;94.27;100179.47;690852;28;4446;-80
2021/07/25 00:59:38;;;;;;;28.57;24.70;;;;;;;16.21;94.18;100176.84;694507;28;1751;-80
2021/07/25 00:59:59;;;;;;;27.60;24.43;;;;;;;16.23;94.16;100168.91;696614;28;1629;-80
2021/07/25 01:00:19;;;;;;;26.48;23.17;;;;;;;16.25;94.28;100173.19;693286;28;3709;-81
2021/07/25 01:00:43;;;;;;;29.02;25.05;;;;;;;16.25;95.10;100170.53;691311;28;4524;-80
2021/07/25 01:01:05;;;;;;;30.73;25.38;;;;;;;16.24;95.31;100168.84;690843;28;1558;-80
2021/07/25 01:01:26;;;;;;;29.30;24.90;;;;;;;16.23;94.67;100169.75;690817;28;1682;-81
2021/07/25 01:01:48;;;;;;;30.10;25.40;;;;;;;16.25;94.73;100172.31;693987;28;1686;-80
2021/07/25 01:02:08;;;;;;;31.27;26.08;;;;;;;16.25;95.23;100173.19;687493;28;5072;-80
2021/07/25 01:02:37;;;;;;;30.10;25.93;;;;;;;16.23;94.91;100169.75;690532;28;1477;-80
2021/07/25 01:03:15;;;;;;;30.10;25.65;;;;;;;16.25;95.40;100172.31;688099;28;2709;-81
2021/07/25 01:03:41;;;;;;;36.40;26.80;;;;;;;16.23;95.63;100171.53;688683;28;3775;-81
2021/07/25 01:04:35;;;;;;;30.92;26.13;;;;;;;16.21;96.01;100179.47;690916;28;3975;-80
2021/07/25 01:05:03;;;;;;;29.33;25.17;;;;;;;16.17;95.66;100168.19;692889;28;4419;-80
2021/07/25 01:05:40;;;;;;;28.63;25.48;;;;;;;16.16;96.00;100179.66;691204;28;4409;-81
2021/07/25 01:06:10;;;;;;;29.98;25.60;;;;;;;16.18;95.02;100171.69;693264;28;1562;-80
2021/07/25 01:06:55;;;;;;;25.52;22.80;;;;;;;16.22;94.09;100167.16;691438;28;1034;-81
2021/07/25 01:07:34;;;;;;;22.85;20.40;;;;;;;16.26;93.04;100164.34;690315;28;3937;-80
2021/07/25 01:08:07;;;;;;;26.00;22.50;;;;;;;16.33;93.88;100168.47;692348;28;4331;-80
2021/07/25 01:08:40;;;;;;;26.48;23.67;;;;;;;16.31;94.91;100172.97;694121;28;4805;-80
2021/07/25 01:09:08;;;;;;;27.20;24.27;;;;;;;16.31;94.78;100166.81;693632;28;1269;-80
2021/07/25 01:09:54;;;;;;;28.80;25.10;;;;;;;16.29;95.14;100164.25;690652;28;1338;-81
2021/07/25 01:10:22;;;;;;;28.40;24.93;;;;;;;16.29;94.90;100166.88;688894;28;4065;-81
2021/07/25 01:10:44;;;;;;;27.77;24.75;;;;;;;16.30;94.70;100170.41;691239;28;1834;-80
2021/07/25 01:11:06;;;;;;;27.58;24.45;;;;;;;16.29;94.40;100169.50;692296;28;4486;-80
2021/07/25 01:11:36;;;;;;;28.33;24.88;;;;;;;16.30;94.80;100167.75;695693;28;1743;-80
2021/07/25 01:12:02;;;;;;;28.77;24.92;;;;;;;16.29;95.17;100169.50;693866;28;1258;-80
2021/07/25 01:12:28;;;;;;;30.98;25.70;;;;;;;16.28;95.12;100167.81;688116;28;1702;-80
2021/07/25 01:12:57;;;;;;;29.55;24.58;;;;;;;16.28;94.55;100165.19;682902;28;1586;-81
2021/07/25 01:13:24;;;;;;;23.83;21.30;;;;;;;16.31;93.97;100164.19;688009;28;2362;-81
2021/07/25 01:13:49;;;;;;;23.65;20.98;;;;;;;16.32;93.72;100164.16;685868;28;3977;-81
2021/07/25 01:14:15;;;;;;;24.70;21.58;;;;;;;16.32;94.71;100164.16;686447;28;4876;-80
2021/07/25 01:14:38;;;;;;;26.02;22.92;;;;;;;16.33;93.95;100165.00;691033;28;2175;-80
2021/07/25 01:15:00;;;;;;;22.70;20.30;;;;;;;16.33;93.90;100165.00;689715;28;1456;-80
2021/07/25 01:15:23;;;;;;;22.95;20.60;;;;;;;16.35;93.47;100163.16;691445;28;1084;-80
2021/07/25 01:15:44;;;;;;;24.20;21.55;;;;;;;16.36;93.48;100164.03;689591;28;1602;-80
2021/07/25 01:16:05;;;;;;;26.77;22.75;;;;;;;16.36;94.30;100169.31;688808;28;1283;-80
2021/07/25 01:16:26;;;;;;;27.80;23.13;;;;;;;16.35;93.91;100173.69;689675;28;4154;-80
2021/07/25 01:16:46;;;;;;;27.33;23.17;;;;;;;16.33;94.84;100165.84;689298;28;2133;-80
2021/07/25 01:17:29;;;;;;;29.37;23.67;;;;;;;16.33;94.14;100165.00;687138;28;4370;-80
2021/07/25 01:17:54;;;;;;;24.65;21.92;;;;;;;16.33;94.24;100172.91;689356;28;1314;-81
2021/07/25 01:18:14;;;;;;;28.23;23.83;;;;;;;16.32;95.11;100160.63;689698;28;1269;-80
2021/07/25 01:18:45;;;;;;;28.30;24.10;;;;;;;16.31;95.33;100165.06;685522;28;1606;-80
2021/07/25 01:19:05;;;;;;;27.58;23.98;;;;;;;16.31;95.47;100158.91;686905;28;2005;-80
2021/07/25 01:19:26;;;;;;;30.23;24.48;;;;;;;16.30;95.78;100155.41;686450;28;1425;-81
2021/07/25 01:19:49;;;;;;;31.93;25.53;;;;;;;16.30;95.74;100163.31;687777;28;4308;-80
2021/07/25 01:20:11;;;;;;;30.10;25.38;;;;;;;16.30;95.83;100165.13;686539;28;4643;-80
2021/07/25 01:20:31;;;;;;;29.48;24.88;;;;;;;16.28;96.04;100167.81;693262;28;1569;-80
2021/07/25 01:20:54;;;;;;;33.90;26.27;;;;;;;16.26;96.19;100166.16;693221;28;1439;-81
2021/07/25 01:21:17;;;;;;;31.73;26.45;;;;;;;16.25;96.14;100156.50;687935;28;1546;-81
2021/07/25 01:21:37;;;;;;;29.83;25.73;;;;;;;16.24;96.25;100160.94;690160;28;1783;-80
2021/07/25 01:21:58;;;;;;;30.20;25.80;;;;;;;16.24;96.34;100155.66;691624;28;1555;-80
2021/07/25 01:22:18;;;;;;;31.05;25.90;;;;;;;16.24;95.42;100160.03;692103;28;2120;-81
2021/07/25 01:22:42;;;;;;;28.20;24.13;;;;;;;16.24;95.10;100155.66;693569;28;1594;-80
2021/07/25 01:23:02;;;;;;;24.98;22.25;;;;;;;16.26;94.85;100156.44;689973;28;4329;-80
2021/07/25 01:23:23;;;;;;;24.85;22.00;;;;;;;16.28;95.29;100156.38;691040;28;4509;-80
2021/07/25 01:23:45;;;;;;;27.85;23.45;;;;;;;16.28;95.74;100157.25;692952;28;1743;-80
2021/07/25 01:24:06;;;;;;;28.65;24.40;;;;;;;16.29;95.14;100156.31;685544;28;1762;-80
2021/07/25 01:24:26;;;;;;;25.88;23.08;;;;;;;16.28;95.34;100157.25;691903;28;1728;-80
2021/07/25 01:24:47;;;;;;;28.00;24.43;;;;;;;16.29;95.60;100161.59;692038;28;1329;-81
2021/07/25 01:25:10;;;;;;;29.20;24.27;;;;;;;16.28;94.82;100159.91;696253;28;1501;-80
2021/07/25 01:25:33;;;;;;;23.45;20.92;;;;;;;16.30;94.07;100158.06;693430;28;3382;-80
2021/07/25 01:25:58;;;;;;;25.17;21.63;;;;;;;16.30;95.43;100162.47;687657;28;4344;-80
2021/07/25 01:26:26;;;;;;;27.17;24.27;;;;;;;16.30;94.90;100158.06;689501;28;4379;-81
2021/07/25 01:26:47;;;;;;;25.77;22.83;;;;;;;16.30;95.18;100155.41;685664;28;3931;-80
2021/07/25 01:27:12;;;;;;;27.70;23.97;;;;;;;16.30;95.48;100160.69;688828;28;1642;-82
2021/07/25 01:27:58;;;;;;;29.92;24.52;;;;;;;16.32;94.46;100153.59;692079;28;1610;-81
2021/07/25 01:28:33;;;;;;;25.38;22.08;;;;;;;16.34;94.83;100164.09;677218;28;1521;-80
2021/07/25 01:28:56;;;;;;;28.10;24.52;;;;;;;16.33;95.15;100150.03;684850;28;4329;-81
2021/07/25 01:29:17;;;;;;;29.08;24.67;;;;;;;16.33;95.10;100155.28;689433;28;5425;-80
2021/07/25 01:29:40;;;;;;;28.23;24.23;;;;;;;16.33;94.73;100157.09;689768;28;2885;-81
2021/07/25 01:30:03;;;;;;;27.05;23.10;;;;;;;16.34;94.36;100157.03;689125;28;4244;-80
2021/07/25 01:30:26;;;;;;;27.35;22.63;;;;;;;16.34;95.16;100156.19;687997;28;1688;-81
2021/07/25 01:30:58;;;;;;;27.80;23.92;;;;;;;16.32;95.04;100158.00;690866;28;1759;-80
2021/07/25 01:31:25;;;;;;;27.38;24.27;;;;;;;16.33;94.30;100157.09;691409;28;1559;-80
2021/07/25 01:31:46;;;;;;;26.40;22.77;;;;;;;16.33;94.28;100157.94;691073;28;1516;-81
2021/07/25 01:32:06;;;;;;;24.83;22.10;;;;;;;16.35;94.91;100157.88;690198;28;4352;-80
2021/07/25 01:32:28;;;;;;;28.93;24.50;;;;;;;16.36;95.35;100156.97;689329;28;2590;-80
2021/07/25 01:32:57;;;;;;;28.80;24.65;;;;;;;16.36;95.31;100158.75;688522;28;3860;-80
2021/07/25 01:33:28;;;;;;;26.63;23.83;;;;;;;16.34;94.23;100159.66;693348;28;1675;-81
2021/07/25 01:33:56;;;;;;;26.40;23.33;;;;;;;16.36;95.34;100164.03;688939;28;2179;-81
2021/07/25 01:34:16;;;;;;;28.00;24.88;;;;;;;16.34;95.47;100157.03;687704;28;1138;-81
2021/07/25 01:34:49;;;;;;;28.88;25.05;;;;;;;16.35;95.23;100152.59;693511;28;1374;-80
2021/07/25 01:35:20;;;;;;;26.75;23.85;;;;;;;16.35;95.31;100157.88;688730;28;5744;-80
2021/07/25 01:35:42;;;;;;;31.52;25.52;;;;;;;16.33;95.82;100157.94;691064;28;1527;-81
2021/07/25 01:36:06;;;;;;;29.38;24.75;;;;;;;16.33;95.99;100160.56;693606;28;1699;-80
2021/07/25 01:36:33;;;;;;;29.90;24.75;;;;;;;16.31;96.00;100151.88;692179;28;4241;-81
2021/07/25 01:37:00;;;;;;;28.20;23.27;;;;;;;16.32;95.43;100158.88;691959;28;1666;-81
2021/07/25 01:37:27;;;;;;;26.30;23.50;;;;;;;16.34;95.64;100154.38;694580;28;1501;-81
2021/07/25 01:37:51;;;;;;;30.20;24.52;;;;;;;16.35;95.69;100149.97;695733;28;1491;-80
2021/07/25 01:38:15;;;;;;;28.88;24.95;;;;;;;16.34;95.68;100157.03;694746;28;4901;-81
2021/07/25 01:38:39;;;;;;;29.70;25.17;;;;;;;16.32;95.93;100153.59;693935;28;1405;-80
2021/07/25 01:39:02;;;;;;;30.10;25.38;;;;;;;16.34;96.01;100150.91;692783;28;2670;-81
2021/07/25 01:39:29;;;;;;;29.17;25.00;;;;;;;16.34;95.61;100154.38;689337;28;4464;-80
2021/07/25 01:39:53;;;;;;;27.15;23.05;;;;;;;16.33;94.93;100154.44;688106;28;1678;-81
2021/07/25 01:40:22;;;;;;;25.42;22.48;;;;;;;16.36;95.10;100148.19;690044;28;1586;-80
2021/07/25 01:41:15;;;;;;;27.92;23.52;;;;;;;16.34;95.57;100154.38;688517;28;1755;-80
2021/07/25 01:41:43;;;;;;;26.38;22.67;;;;;;;16.34;95.46;100151.75;691145;28;6064;-81
2021/07/25 01:42:06;;;;;;;27.23;23.63;;;;;;;16.37;95.38;100157.84;691862;28;1397;-81
2021/07/25 01:42:34;;;;;;;26.60;23.10;;;;;;;16.37;94.93;100155.22;691967;28;5037;-80
2021/07/25 01:42:58;;;;;;;25.08;22.38;;;;;;;16.37;94.98;100155.22;690816;28;2034;-80
2021/07/25 01:43:21;;;;;;;27.30;23.80;;;;;;;16.38;95.05;100151.63;691525;28;1694;-81
2021/07/25 01:43:51;;;;;;;26.92;23.40;;;;;;;16.38;94.90;100155.16;690683;28;1901;-80
2021/07/25 01:44:12;;;;;;;26.80;23.50;;;;;;;16.39;95.07;100164.75;690112;28;4325;-80
2021/07/25 01:44:35;;;;;;;26.75;23.33;;;;;;;16.38;95.25;100163.06;692171;28;1447;-81
2021/07/25 01:44:59;;;;;;;26.50;22.67;;;;;;;16.38;95.52;100157.78;689004;28;1226;-80
2021/07/25 01:45:23;;;;;;;27.15;23.85;;;;;;;16.38;95.71;100162.19;690781;28;1342;-80
2021/07/25 01:45:43;;;;;;;29.45;23.98;;;;;;;16.37;95.67;100160.47;688698;28;4209;-80
2021/07/25 01:46:11;;;;;;;29.63;24.15;;;;;;;16.38;95.66;100162.19;690339;28;4063;-80
2021/07/25 01:46:34;;;;;;;30.58;24.40;;;;;;;16.36;95.77;100159.59;692429;28;1382;-81
2021/07/25 01:46:54;;;;;;;31.35;25.00;;;;;;;16.38;95.86;100159.53;688571;28;4382;-81
2021/07/25 01:47:15;;;;;;;30.33;25.07;;;;;;;16.38;96.15;100164.81;689691;28;4415;-80
2021/07/25 01:47:42;;;;;;;29.15;24.88;;;;;;;16.38;95.90;100154.25;693351;28;1073;-81
2021/07/25 01:48:07;;;;;;;27.77;24.15;;;;;;;16.36;95.91;100159.59;694858;28;1269;-80